Time;durP1;ratioP1;P1;durP2;ratioP2;P2;SDS_P1;SDS_P2;PMS_P1;PMS_P2;Temp;Humidity;BMP_temperature;BMP_pressure;BME280_temperature;BME280_humidity;BME280_pressure;Samples;Min_cycle;Max_cycle;Signal;HPM_P1;HPM_P2
2022/09/28 00:00:38;;;;;;;4.38;1.55;;;13.50;99.90;;;;;;5074813;28;20017;-83
2022/09/28 00:03:05;;;;;;;3.63;1.48;;;13.50;99.90;;;;;;5074526;28;20017;-82
2022/09/28 00:05:31;;;;;;;3.35;1.38;;;13.70;99.90;;;;;;5075053;28;20425;-82
2022/09/28 00:07:57;;;;;;;4.15;1.25;;;13.40;99.90;;;;;;5075047;28;20044;-82
2022/09/28 00:10:22;;;;;;;3.38;1.35;;;13.30;99.90;;;;;;5074634;28;20024;-83
2022/09/28 00:12:54;;;;;;;4.18;1.48;;;13.20;99.90;;;;;;5074799;28;20107;-82
2022/09/28 00:15:20;;;;;;;3.45;1.48;;;13.50;99.90;;;;;;5074653;28;20035;-82
2022/09/28 00:17:46;;;;;;;3.50;1.50;;;13.20;99.90;;;;;;5074140;28;20082;-82
2022/09/28 00:20:12;;;;;;;7.15;1.50;;;13.40;99.90;;;;;;5074186;28;20099;-82
2022/09/28 00:22:38;;;;;;;3.65;1.40;;;13.30;99.90;;;;;;5074960;28;20591;-82
2022/09/28 00:25:05;;;;;;;4.35;1.40;;;13.40;99.90;;;;;;5074339;28;20082;-82
2022/09/28 00:27:31;;;;;;;3.95;1.50;;;13.40;99.90;;;;;;5074242;28;20032;-82
2022/09/28 00:29:56;;;;;;;4.90;1.52;;;13.50;99.90;;;;;;5074219;28;20032;-83
2022/09/28 00:32:23;;;;;;;3.90;1.30;;;13.40;99.90;;;;;;5073917;28;20546;-82
2022/09/28 00:34:50;;;;;;;3.72;1.38;;;13.30;99.90;;;;;;5074642;28;20044;-82
2022/09/28 00:37:19;;;;;;;7.20;1.77;;;13.30;99.90;;;;;;5074519;28;20025;-83
2022/09/28 00:39:47;;;;;;;4.82;1.50;;;13.20;99.90;;;;;;5073999;28;20033;-83
2022/09/28 00:42:16;;;;;;;4.82;1.50;;;13.50;99.90;;;;;;5074620;28;20025;-83
2022/09/28 00:44:58;;;;;;;3.72;1.33;;;13.20;99.90;;;;;;5073749;28;20054;-82
2022/09/28 00:47:48;;;;;;;3.88;1.77;;;13.30;99.90;;;;;;5073959;28;20044;-83
2022/09/28 00:50:23;;;;;;;5.03;1.67;;;13.40;99.90;;;;;;5074171;28;20086;-83
2022/09/28 00:53:02;;;;;;;4.45;1.00;;;13.40;99.90;;;;;;5074072;28;20043;-82
2022/09/28 00:55:40;;;;;;;4.97;2.00;;;13.50;99.90;;;;;;5074529;28;20039;-82
2022/09/28 00:58:10;;;;;;;3.95;1.50;;;13.40;99.90;;;;;;5074473;28;20037;-82
2022/09/28 01:00:39;;;;;;;6.10;1.60;;;13.80;99.90;;;;;;5073708;28;20496;-82
2022/09/28 01:03:06;;;;;;;3.85;1.38;;;13.40;99.90;;;;;;5073629;28;20028;-83
2022/09/28 01:05:33;;;;;;;4.63;1.20;;;13.40;99.90;;;;;;5074005;28;20031;-83
2022/09/28 01:08:00;;;;;;;2.90;1.13;;;13.80;99.90;;;;;;5074175;28;20388;-82
2022/09/28 01:10:29;;;;;;;3.90;1.30;;;13.70;99.90;;;;;;5073421;28;20028;-82
2022/09/28 01:12:56;;;;;;;2.70;1.20;;;13.30;99.90;;;;;;5073776;28;20175;-82
2022/09/28 01:15:24;;;;;;;1.70;1.00;;;13.30;99.90;;;;;;5073325;28;20024;-82
2022/09/28 01:17:49;;;;;;;3.83;1.10;;;13.80;99.90;;;;;;5073272;28;20133;-82
2022/09/28 01:20:26;;;;;;;2.08;1.00;;;13.60;99.90;;;;;;5073284;28;20108;-82
2022/09/28 01:23:22;;;;;;;2.25;0.85;;;13.40;99.90;;;;;;5073475;28;20392;-82
2022/09/28 01:26:08;;;;;;;4.68;1.17;;;13.50;99.90;;;;;;5073207;28;20029;-82
2022/09/28 01:28:34;;;;;;;3.88;1.10;;;13.60;99.90;;;;;;5073329;28;20063;-82
2022/09/28 01:31:11;;;;;;;3.13;1.10;;;13.60;99.90;;;;;;5072712;28;20032;-82
2022/09/28 01:33:58;;;;;;;2.45;1.10;;;13.70;99.90;;;;;;5073489;28;20039;-82
2022/09/28 01:36:38;;;;;;;3.13;1.17;;;13.60;99.90;;;;;;5073176;28;20042;-83
2022/09/28 01:39:35;;;;;;;2.50;1.33;;;13.60;99.90;;;;;;5072833;28;20404;-82
2022/09/28 01:42:10;;;;;;;4.07;0.95;;;13.70;99.90;;;;;;5072783;28;20037;-82
2022/09/28 01:44:39;;;;;;;2.22;0.82;;;13.80;99.90;;;;;;5072580;28;20443;-82
2022/09/28 01:47:09;;;;;;;4.03;1.00;;;14.10;99.90;;;;;;5073036;28;20024;-82
2022/09/28 01:49:41;;;;;;;1.73;1.10;;;13.90;99.90;;;;;;5072853;28;20103;-82
2022/09/28 01:52:24;;;;;;;3.00;0.90;;;13.90;99.90;;;;;;5073490;28;20362;-82
2022/09/28 01:54:59;;;;;;;3.20;0.80;;;14.00;99.90;;;;;;5073424;28;20039;-83
2022/09/28 01:57:36;;;;;;;3.33;0.80;;;14.00;99.90;;;;;;5072453;28;20036;-82
2022/09/28 02:00:09;;;;;;;4.32;0.80;;;14.00;99.90;;;;;;5057685;28;20032;-82
2022/09/28 02:02:53;;;;;;;1.38;0.75;;;14.00;99.90;;;;;;5073018;28;20054;-83
2022/09/28 02:05:34;;;;;;;2.20;0.60;;;14.00;99.90;;;;;;5072357;28;20028;-82
2022/09/28 02:08:11;;;;;;;1.40;0.80;;;14.10;99.90;;;;;;5072699;28;20021;-82
2022/09/28 02:10:47;;;;;;;1.42;0.70;;;14.10;99.90;;;;;;5072658;28;20048;-82
2022/09/28 02:13:19;;;;;;;1.58;0.80;;;14.20;99.90;;;;;;5071928;28;20553;-82
2022/09/28 02:15:50;;;;;;;1.65;0.82;;;14.20;99.90;;;;;;5071812;28;20052;-82
2022/09/28 02:18:16;;;;;;;1.98;0.80;;;14.20;99.90;;;;;;5072898;28;20025;-83
2022/09/28 02:20:46;;;;;;;1.52;0.50;;;14.30;99.90;;;;;;5072235;28;20099;-83
2022/09/28 02:23:13;;;;;;;1.80;0.82;;;14.40;99.90;;;;;;5072343;28;20013;-82
2022/09/28 02:25:46;;;;;;;1.13;0.70;;;14.30;99.90;;;;;;5072452;28;20032;-83
2022/09/28 02:28:12;;;;;;;0.40;0.40;;;14.30;99.90;;;;;;5070768;28;20035;-83
2022/09/28 02:30:40;;;;;;;1.88;0.60;;;14.30;99.90;;;;;;5071714;28;20585;-83
2022/09/28 02:33:11;;;;;;;1.95;0.65;;;14.30;99.90;;;;;;5072113;28;20041;-83
2022/09/28 02:35:38;;;;;;;5.22;0.85;;;14.30;99.90;;;;;;5072282;28;20397;-82
2022/09/28 02:38:04;;;;;;;3.78;0.80;;;14.30;99.90;;;;;;5072093;28;20047;-82
2022/09/28 02:40:33;;;;;;;1.95;0.88;;;14.40;99.90;;;;;;5072323;28;20028;-83
2022/09/28 02:43:28;;;;;;;1.13;0.60;;;14.40;99.90;;;;;;5072028;28;20040;-83
2022/09/28 02:46:22;;;;;;;3.80;0.98;;;14.40;99.90;;;;;;5072245;28;20033;-82
2022/09/28 02:49:06;;;;;;;2.08;0.65;;;14.40;99.90;;;;;;5071877;28;20158;-83
2022/09/28 02:51:50;;;;;;;2.17;0.60;;;14.40;99.90;;;;;;5072061;28;20052;-83
2022/09/28 02:54:31;;;;;;;1.13;0.47;;;14.40;99.90;;;;;;5071818;28;20114;-83
2022/09/28 02:57:18;;;;;;;2.00;1.05;;;14.30;99.90;;;;;;5071236;28;20487;-83
2022/09/28 02:59:46;;;;;;;2.70;0.60;;;14.40;99.90;;;;;;5071863;28;20082;-84
2022/09/28 03:02:37;;;;;;;2.92;0.90;;;14.30;99.90;;;;;;5072209;28;20078;-83
2022/09/28 03:05:18;;;;;;;1.92;0.50;;;14.30;99.90;;;;;;5072033;28;20123;-83
2022/09/28 03:08:02;;;;;;;2.40;0.80;;;14.30;99.90;;;;;;5072043;28;20043;-82
2022/09/28 03:10:46;;;;;;;2.83;0.70;;;14.40;99.90;;;;;;5071506;28;20492;-82
2022/09/28 03:13:13;;;;;;;1.08;0.65;;;14.30;99.90;;;;;;5071546;28;20048;-82
2022/09/28 03:15:40;;;;;;;2.55;0.88;;;14.40;99.90;;;;;;5072058;28;20063;-83
2022/09/28 03:18:06;;;;;;;0.98;0.60;;;14.40;99.90;;;;;;5071789;28;20044;-83
2022/09/28 03:20:32;;;;;;;2.47;0.57;;;14.70;99.90;;;;;;5071108;28;20021;-82
2022/09/28 03:22:59;;;;;;;3.47;0.65;;;14.40;99.90;;;;;;5070903;28;20036;-82
2022/09/28 03:25:25;;;;;;;1.63;0.43;;;14.20;99.90;;;;;;5071799;28;20031;-83
2022/09/28 03:27:51;;;;;;;1.30;0.70;;;14.20;99.90;;;;;;5071412;28;20037;-82
2022/09/28 03:30:16;;;;;;;1.80;0.80;;;14.20;99.90;;;;;;5071490;28;20035;-83
2022/09/28 03:32:42;;;;;;;3.15;0.95;;;14.20;99.90;;;;;;5071254;28;20041;-83
2022/09/28 03:35:08;;;;;;;3.30;0.73;;;14.20;99.90;;;;;;5071132;28;20093;-82
2022/09/28 03:37:34;;;;;;;1.63;0.52;;;14.10;99.90;;;;;;5071767;28;20032;-83
2022/09/28 03:40:00;;;;;;;1.63;0.70;;;13.80;99.90;;;;;;5071586;28;20020;-83
2022/09/28 03:42:26;;;;;;;2.47;0.75;;;13.70;99.90;;;;;;5071031;28;20029;-83
2022/09/28 03:44:52;;;;;;;1.38;0.63;;;14.20;99.90;;;;;;5071422;28;20025;-83
2022/09/28 03:47:18;;;;;;;2.72;0.80;;;14.10;99.90;;;;;;5071507;28;20051;-83
2022/09/28 03:49:44;;;;;;;0.93;0.60;;;14.10;99.90;;;;;;5071197;28;20035;-81
2022/09/28 03:52:10;;;;;;;2.40;0.82;;;14.10;99.90;;;;;;5071336;28;20032;-83
2022/09/28 03:54:36;;;;;;;1.92;0.60;;;14.10;99.90;;;;;;5070978;28;20143;-83
2022/09/28 03:57:02;;;;;;;3.28;1.10;;;14.00;99.90;;;;;;5071267;28;20480;-82
2022/09/28 03:59:27;;;;;;;1.80;0.82;;;14.00;99.90;;;;;;5071519;28;20038;-83
2022/09/28 04:01:53;;;;;;;2.25;0.70;;;13.00;1.00;;;;;;5071205;28;20029;-83
2022/09/28 04:04:19;;;;;;;3.33;0.90;;;13.50;99.90;;;;;;5071490;28;20066;-82
2022/09/28 04:06:44;;;;;;;1.25;0.70;;;13.00;99.90;;;;;;5071070;28;20025;-83
2022/09/28 04:09:11;;;;;;;2.63;0.82;;;13.20;99.90;;;;;;5072028;28;20082;-83
2022/09/28 04:11:36;;;;;;;1.55;0.70;;;13.60;99.90;;;;;;5074713;28;20036;-82
2022/09/28 04:14:02;;;;;;;2.05;0.93;;;13.30;99.90;;;;;;5074815;28;20036;-83
2022/09/28 04:16:27;;;;;;;1.92;0.80;;;13.80;99.90;;;;;;5074748;28;20388;-83
2022/09/28 04:18:53;;;;;;;1.70;0.70;;;13.80;99.90;;;;;;5074174;28;20020;-82
2022/09/28 04:21:19;;;;;;;1.33;0.70;;;13.50;99.90;;;;;;5074775;28;20032;-82
2022/09/28 04:23:46;;;;;;;3.38;1.42;;;13.50;99.90;;;;;;5073216;28;20025;-83
2022/09/28 04:26:24;;;;;;;3.63;1.00;;;13.90;99.90;;;;;;5074633;28;20032;-83
2022/09/28 04:31:44;;;;;;;2.30;0.65;;;13.30;99.90;;;;;;5075744;28;20034;-83
2022/09/28 04:34:11;;;;;;;1.98;0.80;;;13.10;99.90;;;;;;5074667;28;20037;-83
2022/09/28 04:36:37;;;;;;;2.78;1.10;;;12.80;99.90;;;;;;5074633;28;20053;-83
2022/09/28 04:39:02;;;;;;;2.17;1.20;;;12.70;99.90;;;;;;5073940;28;20060;-83
2022/09/28 04:41:28;;;;;;;2.13;0.85;;;13.00;99.90;;;;;;5074412;28;20112;-83
2022/09/28 04:43:54;;;;;;;2.15;0.75;;;13.00;99.90;;;;;;5074943;28;20024;-83
2022/09/28 04:46:20;;;;;;;1.58;0.70;;;12.90;99.90;;;;;;5074387;28;20554;-83
2022/09/28 04:48:45;;;;;;;0.65;0.52;;;12.90;99.90;;;;;;5075102;28;20012;-82
2022/09/28 04:51:11;;;;;;;3.70;1.00;;;12.90;99.90;;;;;;5074624;28;20404;-83
2022/09/28 04:53:37;;;;;;;2.65;0.80;;;13.00;99.90;;;;;;5074016;28;20400;-82
2022/09/28 04:56:09;;;;;;;4.93;1.02;;;13.50;99.90;;;;;;5074148;28;20033;-83
2022/09/28 04:58:35;;;;;;;2.67;1.00;;;13.10;99.90;;;;;;5074090;28;20024;-83
2022/09/28 05:01:03;;;;;;;2.55;0.82;;;12.70;99.90;;;;;;5073912;28;20028;-83
2022/09/28 05:03:28;;;;;;;1.52;0.90;;;12.90;99.90;;;;;;5074236;28;20040;-83
2022/09/28 05:05:54;;;;;;;3.00;0.98;;;13.10;99.90;;;;;;5073996;28;20384;-83
2022/09/28 05:08:20;;;;;;;3.88;0.80;;;13.30;99.90;;;;;;5072495;28;20546;-82
2022/09/28 05:10:46;;;;;;;2.70;0.98;;;13.40;99.90;;;;;;5085178;28;20099;-82
2022/09/28 05:13:13;;;;;;;2.00;1.08;;;13.80;99.90;;;;;;5094695;28;20487;-82
2022/09/28 05:15:39;;;;;;;1.67;0.65;;;14.00;99.90;;;;;;5076228;28;20036;-82
2022/09/28 05:18:06;;;;;;;2.47;0.63;;;13.80;99.90;;;;;;5074044;28;20032;-82
2022/09/28 05:20:32;;;;;;;1.88;0.70;;;13.70;99.90;;;;;;5073172;28;20099;-82
2022/09/28 05:22:58;;;;;;;1.85;0.70;;;13.70;99.90;;;;;;5073913;28;20388;-83
2022/09/28 05:25:24;;;;;;;1.45;0.70;;;14.10;99.90;;;;;;5073444;28;20033;-82
2022/09/28 05:27:56;;;;;;;1.00;0.63;;;13.80;99.90;;;;;;5073195;28;20028;-82
2022/09/28 05:30:22;;;;;;;2.80;0.80;;;13.80;99.90;;;;;;5073533;28;20032;-82
2022/09/28 05:32:49;;;;;;;1.55;0.60;;;13.80;99.90;;;;;;5073463;28;20037;-82
2022/09/28 05:35:15;;;;;;;1.33;0.60;;;13.80;99.90;;;;;;5073292;28;20055;-82
2022/09/28 05:37:41;;;;;;;3.55;0.70;;;14.30;99.90;;;;;;5072782;28;20057;-82
2022/09/28 05:40:07;;;;;;;1.42;0.68;;;13.80;99.90;;;;;;5073328;28;20396;-83
2022/09/28 05:42:33;;;;;;;2.17;0.80;;;13.80;99.90;;;;;;5073066;28;20029;-82
2022/09/28 05:44:59;;;;;;;2.30;0.77;;;13.90;99.90;;;;;;5073024;28;20032;-82
2022/09/28 05:47:25;;;;;;;2.90;0.75;;;14.30;99.90;;;;;;5073763;28;20025;-82
2022/09/28 05:49:51;;;;;;;3.42;0.70;;;14.00;99.90;;;;;;5078599;28;20086;-83
2022/09/28 05:52:18;;;;;;;1.92;1.00;;;14.00;99.90;;;;;;5092527;28;20028;-83
2022/09/28 05:54:43;;;;;;;0.80;0.70;;;14.10;99.90;;;;;;5085179;28;20492;-82
2022/09/28 05:57:09;;;;;;;3.22;1.33;;;14.10;99.90;;;;;;5072904;28;20024;-83
2022/09/28 05:59:35;;;;;;;2.17;0.88;;;14.10;99.90;;;;;;5072622;28;20032;-83
2022/09/28 06:02:01;;;;;;;2.17;1.00;;;14.10;99.90;;;;;;5072714;28;20098;-82
2022/09/28 06:04:27;;;;;;;2.85;0.90;;;14.50;99.90;;;;;;5072815;28;20063;-83
2022/09/28 06:06:53;;;;;;;0.93;0.50;;;14.20;99.90;;;;;;5072459;28;20024;-83
2022/09/28 06:09:19;;;;;;;1.83;0.82;;;14.30;99.90;;;;;;5072685;28;20082;-83
2022/09/28 06:11:45;;;;;;;1.60;0.60;;;14.40;99.90;;;;;;5072851;28;20024;-83
2022/09/28 06:14:12;;;;;;;1.73;0.70;;;14.40;99.90;;;;;;5068043;28;20054;-83
2022/09/28 06:16:39;;;;;;;1.83;0.63;;;14.40;99.90;;;;;;5085053;28;20392;-83
2022/09/28 06:19:04;;;;;;;1.05;0.68;;;14.50;99.90;;;;;;5082326;28;20037;-83
2022/09/28 06:21:30;;;;;;;3.13;0.70;;;14.50;99.90;;;;;;5072400;28;20507;-83
2022/09/28 06:23:55;;;;;;;1.58;0.80;;;14.50;99.90;;;;;;5062689;28;20044;-83
2022/09/28 06:26:21;;;;;;;1.38;0.68;;;14.60;99.90;;;;;;5069689;28;20552;-83
2022/09/28 06:28:47;;;;;;;1.17;0.70;;;14.60;99.90;;;;;;5069827;28;20020;-83
2022/09/28 06:31:12;;;;;;;1.17;0.70;;;14.70;99.90;;;;;;5069254;28;20028;-83
2022/09/28 06:33:40;;;;;;;1.92;0.80;;;14.80;99.90;;;;;;5069614;28;20504;-83
2022/09/28 06:36:07;;;;;;;0.82;0.60;;;15.00;99.90;;;;;;5069347;28;20035;-82
2022/09/28 06:38:32;;;;;;;1.48;0.50;;;14.90;99.90;;;;;;5069618;28;20047;-83
2022/09/28 06:40:58;;;;;;;1.40;0.70;;;14.90;99.90;;;;;;5069298;28;20025;-83
2022/09/28 06:43:24;;;;;;;2.55;0.40;;;15.00;99.90;;;;;;5069640;28;20111;-83
2022/09/28 06:45:51;;;;;;;2.75;1.98;;;15.00;99.90;;;;;;5069750;28;20032;-83
2022/09/28 06:48:17;;;;;;;2.42;0.70;;;15.00;99.90;;;;;;5050673;28;20682;-81
2022/09/28 06:50:42;;;;;;;1.55;0.70;;;15.10;99.90;;;;;;5054786;28;20027;-83
2022/09/28 06:53:11;;;;;;;0.63;0.40;;;15.10;99.90;;;;;;5057944;28;20040;-83
2022/09/28 06:55:41;;;;;;;2.05;0.65;;;15.10;99.90;;;;;;5056936;28;20033;-85
2022/09/28 06:58:10;;;;;;;1.48;0.70;;;15.20;99.90;;;;;;5052585;28;20021;-87
2022/09/28 07:00:38;;;;;;;1.75;0.70;;;15.40;99.90;;;;;;5053600;28;20118;-85
2022/09/28 07:03:11;;;;;;;3.25;0.70;;;15.60;99.90;;;;;;5060157;28;20477;-86
2022/09/28 07:05:43;;;;;;;2.95;0.65;;;15.30;99.90;;;;;;5072660;28;20060;-85
2022/09/28 07:08:09;;;;;;;1.85;0.55;;;15.30;99.90;;;;;;5070024;28;20032;-86
2022/09/28 07:10:39;;;;;;;1.00;0.77;;;15.40;99.90;;;;;;5071375;28;20082;-85
2022/09/28 07:13:05;;;;;;;1.60;0.70;;;15.60;99.90;;;;;;5068404;28;20024;-86
2022/09/28 07:15:31;;;;;;;2.45;0.80;;;15.50;99.90;;;;;;5068824;28;20504;-89
2022/09/28 07:18:02;;;;;;;2.38;0.80;;;15.60;99.90;;;;;;5068085;28;20029;-87
2022/09/28 07:20:28;;;;;;;1.33;0.70;;;15.90;99.90;;;;;;5066082;28;20033;-87
2022/09/28 07:22:55;;;;;;;2.22;0.63;;;15.60;99.90;;;;;;5066648;28;20039;-87
2022/09/28 07:25:22;;;;;;;1.58;0.60;;;15.60;99.90;;;;;;5071043;28;20024;-84
2022/09/28 07:27:49;;;;;;;3.83;0.70;;;15.80;99.90;;;;;;5057860;28;20119;-95
2022/09/28 07:30:15;;;;;;;1.50;0.60;;;15.90;99.90;;;;;;5055035;28;20032;-84
2022/09/28 07:32:43;;;;;;;1.40;0.63;;;15.90;99.90;;;;;;5070367;28;20493;-84
2022/09/28 07:35:09;;;;;;;1.33;0.40;;;15.90;99.90;;;;;;5066452;28;20078;-83
2022/09/28 07:37:35;;;;;;;0.55;0.50;;;15.90;99.90;;;;;;5061538;28;20052;-84
2022/09/28 07:42:47;;;;;;;2.08;0.50;;;16.00;99.90;;;;;;5053245;28;20071;-84
2022/09/28 07:45:14;;;;;;;1.40;0.90;;;16.10;99.90;;;;;;5055514;28;20052;-84
2022/09/28 07:47:39;;;;;;;2.30;0.70;;;16.40;99.90;;;;;;5055148;28;20385;-84
2022/09/28 07:50:05;;;;;;;1.35;0.80;;;16.80;99.90;;;;;;5055725;28;20021;-84
2022/09/28 07:52:34;;;;;;;1.05;0.60;;;16.50;99.90;;;;;;5055515;28;20139;-84
2022/09/28 07:55:00;;;;;;;2.25;0.93;;;16.50;99.90;;;;;;5055265;28;20090;-84
2022/09/28 07:57:27;;;;;;;2.75;0.88;;;16.50;99.90;;;;;;5055235;28;20033;-84
2022/09/28 07:59:53;;;;;;;3.80;0.75;;;16.00;99.90;;;;;;5056487;28;20550;-83
2022/09/28 08:02:19;;;;;;;2.35;0.98;;;15.30;99.90;;;;;;5074832;28;20016;-84
2022/09/28 08:04:46;;;;;;;2.08;0.75;;;15.30;99.90;;;;;;5075195;28;20101;-84
2022/09/28 08:07:14;;;;;;;1.70;0.60;;;15.70;99.90;;;;;;5075111;28;20561;-85
2022/09/28 08:09:40;;;;;;;1.00;0.70;;;15.50;99.90;;;;;;5075408;28;20052;-84
2022/09/28 08:12:06;;;;;;;1.33;0.70;;;15.90;99.90;;;;;;5075008;28;20012;-84
2022/09/28 08:14:33;;;;;;;4.70;0.95;;;15.80;99.90;;;;;;5074852;28;20036;-84
2022/09/28 08:17:03;;;;;;;1.05;0.80;;;15.90;99.90;;;;;;5074266;28;20070;-84
2022/09/28 08:22:14;;;;;;;1.52;0.80;;;16.30;99.90;;;;;;5075114;28;20027;-84
2022/09/28 08:24:40;;;;;;;1.58;1.00;;;16.50;99.90;;;;;;5075359;28;20017;-84
2022/09/28 08:27:06;;;;;;;2.95;0.80;;;16.80;99.90;;;;;;5074804;28;20477;-84
2022/09/28 08:29:31;;;;;;;0.57;0.57;;;16.60;99.90;;;;;;5074598;28;20025;-84
2022/09/28 08:32:00;;;;;;;1.77;0.80;;;16.50;99.90;;;;;;5071411;28;20040;-85
2022/09/28 08:34:26;;;;;;;1.70;0.80;;;16.40;99.90;;;;;;5073775;28;20048;-83
2022/09/28 08:36:52;;;;;;;1.35;0.85;;;16.40;99.90;;;;;;5075067;28;20090;-84
2022/09/28 08:39:18;;;;;;;0.95;0.70;;;16.70;99.90;;;;;;5072662;28;20040;-83
2022/09/28 08:42:09;;;;;;;2.05;0.70;;;16.70;99.90;;;;;;5074082;28;20051;-84
2022/09/28 08:44:57;;;;;;;2.83;1.02;;;17.00;99.90;;;;;;5054044;28;20068;-83
2022/09/28 08:50:21;;;;;;;1.17;1.05;;;17.40;99.90;;;;;;5067261;28;20519;-83
2022/09/28 08:52:54;;;;;;;1.88;0.98;;;17.70;99.90;;;;;;5074166;28;20488;-83
2022/09/28 08:55:36;;;;;;;1.73;1.00;;;17.60;99.90;;;;;;5073093;28;20064;-83
2022/09/28 08:58:22;;;;;;;2.88;2.13;;;17.80;99.90;;;;;;5074190;28;20515;-86
2022/09/28 09:00:50;;;;;;;2.13;1.02;;;20.00;99.90;;;;;;5073668;28;20024;-79
2022/09/28 09:03:28;;;;;;;2.15;0.57;;;20.90;99.90;;;;;;5073741;28;20036;-80
2022/09/28 09:06:21;;;;;;;3.15;0.90;;;19.30;99.90;;;;;;5074366;28;20021;-80
2022/09/28 09:09:17;;;;;;;1.17;0.60;;;18.70;99.90;;;;;;5074084;28;20033;-81
2022/09/28 09:12:07;;;;;;;2.75;0.80;;;18.80;99.90;;;;;;5073594;28;20024;-83
2022/09/28 09:14:44;;;;;;;3.10;1.13;;;20.90;99.90;;;;;;5072548;28;20090;-81
2022/09/28 09:17:17;;;;;;;1.30;0.60;;;21.60;99.90;;;;;;5073806;28;20477;-81
2022/09/28 09:19:55;;;;;;;1.38;0.80;;;23.00;99.90;;;;;;5073279;28;20029;-81
2022/09/28 09:22:49;;;;;;;1.40;0.65;;;22.60;99.90;;;;;;5077301;28;20081;-82
2022/09/28 09:25:25;;;;;;;2.30;0.80;;;19.80;99.90;;;;;;5093547;28;20059;-82
2022/09/28 09:28:14;;;;;;;1.63;0.80;;;18.60;99.90;;;;;;5093739;28;20027;-81
2022/09/28 09:30:46;;;;;;;3.88;1.10;;;18.50;99.90;;;;;;5086084;28;20028;-81
2022/09/28 09:33:25;;;;;;;1.23;0.77;;;18.70;99.90;;;;;;5073154;28;20052;-83
2022/09/28 09:36:06;;;;;;;2.92;0.80;;;19.00;99.90;;;;;;5073485;28;20028;-81
2022/09/28 09:38:46;;;;;;;1.55;1.13;;;19.10;99.90;;;;;;5073179;28;20033;-80
2022/09/28 09:41:34;;;;;;;1.17;0.70;;;19.90;99.90;;;;;;5073407;28;20144;-81
2022/09/28 09:44:22;;;;;;;2.35;0.80;;;20.70;99.90;;;;;;5069872;28;20522;-81
2022/09/28 09:47:06;;;;;;;0.80;0.63;;;19.90;99.90;;;;;;5073563;28;20024;-80
2022/09/28 09:49:42;;;;;;;1.25;0.70;;;19.30;99.90;;;;;;5073329;28;20044;-81
2022/09/28 09:52:26;;;;;;;2.47;0.88;;;18.80;99.90;;;;;;5073160;28;20503;-80
2022/09/28 09:55:13;;;;;;;0.95;0.80;;;18.70;99.90;;;;;;5072892;28;20496;-80
2022/09/28 09:57:42;;;;;;;1.95;0.80;;;18.20;99.90;;;;;;5072913;28;20158;-80
2022/09/28 10:00:15;;;;;;;1.80;0.80;;;18.10;99.90;;;;;;5072479;28;20035;-81
2022/09/28 10:02:43;;;;;;;1.52;0.88;;;18.10;99.90;;;;;;5073206;28;20428;-81
2022/09/28 10:05:12;;;;;;;0.77;0.70;;;17.90;99.90;;;;;;5072992;28;20409;-81
2022/09/28 10:07:44;;;;;;;1.27;0.80;;;17.90;99.90;;;;;;5072458;28;20029;-80
2022/09/28 10:10:34;;;;;;;1.85;0.88;;;17.70;99.90;;;;;;5072612;28;20025;-80
2022/09/28 10:13:00;;;;;;;1.20;0.90;;;17.90;99.90;;;;;;5030219;28;20099;-80
2022/09/28 10:15:29;;;;;;;2.08;0.70;;;17.80;99.90;;;;;;5030608;28;20520;-80
2022/09/28 10:17:57;;;;;;;1.38;0.65;;;17.70;99.90;;;;;;5030470;28;20037;-80
2022/09/28 10:20:24;;;;;;;1.63;0.90;;;17.80;99.90;;;;;;5030464;28;20411;-80
2022/09/28 10:22:56;;;;;;;1.40;0.60;;;18.10;99.90;;;;;;5030455;28;20502;-80
2022/09/28 10:25:23;;;;;;;0.90;0.73;;;18.10;99.90;;;;;;5030375;28;20029;-81
2022/09/28 10:27:51;;;;;;;1.08;0.88;;;18.20;99.90;;;;;;5030348;28;20079;-80
2022/09/28 10:30:22;;;;;;;0.95;0.75;;;18.60;99.90;;;;;;5029850;28;20034;-80
2022/09/28 10:32:50;;;;;;;0.70;0.52;;;19.20;99.90;;;;;;5030698;28;20057;-80
2022/09/28 10:35:18;;;;;;;1.10;0.80;;;19.10;99.90;;;;;;5030310;28;20044;-81
2022/09/28 10:38:02;;;;;;;0.50;0.50;;;19.40;99.90;;;;;;5030344;28;20441;-81
2022/09/28 10:40:38;;;;;;;0.70;0.70;;;19.70;99.90;;;;;;5030228;28;20571;-80
2022/09/28 10:43:25;;;;;;;2.35;0.70;;;19.50;99.90;;;;;;5030197;28;20513;-80
2022/09/28 10:46:02;;;;;;;3.90;0.80;;;19.50;99.90;;;;;;5030113;28;20033;-81
2022/09/28 10:48:34;;;;;;;3.60;0.80;;;19.90;99.90;;;;;;5030375;28;20021;-81
2022/09/28 10:51:05;;;;;;;2.92;0.60;;;19.60;99.90;;;;;;5050158;28;20056;-82
2022/09/28 10:53:30;;;;;;;1.10;0.82;;;19.70;99.90;;;;;;5052281;28;20107;-80
2022/09/28 10:56:03;;;;;;;1.80;0.70;;;19.70;99.90;;;;;;5051884;28;20185;-80
2022/09/28 10:58:40;;;;;;;1.02;0.70;;;19.50;99.90;;;;;;5052310;28;20025;-80
2022/09/28 11:01:29;;;;;;;0.45;0.40;;;19.40;99.90;;;;;;5063420;28;20170;-79
2022/09/28 11:04:01;;;;;;;2.28;0.70;;;19.10;99.90;;;;;;5072193;28;20025;-80
2022/09/28 11:06:34;;;;;;;1.13;0.57;;;18.80;99.90;;;;;;5071940;28;20054;-80
2022/09/28 11:09:04;;;;;;;1.15;0.68;;;19.20;99.90;;;;;;5072385;28;20033;-80
2022/09/28 11:11:38;;;;;;;1.55;0.85;;;19.60;99.90;;;;;;5071791;28;20090;-80
2022/09/28 11:14:17;;;;;;;0.80;0.70;;;20.30;99.90;;;;;;5072052;28;20032;-80
2022/09/28 11:16:43;;;;;;;0.95;0.70;;;20.20;99.90;;;;;;5071032;28;20024;-80
2022/09/28 11:19:18;;;;;;;1.35;0.70;;;20.10;99.90;;;;;;5075422;28;20048;-80
2022/09/28 11:21:45;;;;;;;2.50;0.80;;;19.60;99.90;;;;;;5076020;28;20029;-80
2022/09/28 11:24:14;;;;;;;1.05;0.65;;;19.70;99.90;;;;;;5075588;28;20024;-79
2022/09/28 11:26:48;;;;;;;0.90;0.55;;;19.90;99.90;;;;;;5075711;28;20029;-80
2022/09/28 11:29:33;;;;;;;0.80;0.70;;;19.90;99.90;;;;;;5076063;28;20033;-80
2022/09/28 11:32:04;;;;;;;0.93;0.60;;;21.50;99.90;;;;;;5075739;28;20048;-80
2022/09/28 11:34:35;;;;;;;1.15;0.80;;;21.80;99.90;;;;;;5075521;28;20396;-80
2022/09/28 11:37:03;;;;;;;1.60;0.70;;;21.30;99.90;;;;;;5075795;28;20070;-80
2022/09/28 11:39:47;;;;;;;1.08;0.77;;;21.00;99.90;;;;;;5075186;28;20494;-80
2022/09/28 11:42:24;;;;;;;2.75;0.52;;;20.90;99.90;;;;;;5075494;28;20024;-80
2022/09/28 11:45:25;;;;;;;0.88;0.73;;;20.90;99.90;;;;;;5075835;28;20028;-80
2022/09/28 11:48:04;;;;;;;2.60;0.80;;;21.40;99.90;;;;;;5053532;28;20045;-80
2022/09/28 11:50:45;;;;;;;2.15;0.68;;;21.70;99.90;;;;;;5053124;28;20040;-80
2022/09/28 11:53:49;;;;;;;1.60;0.88;;;22.40;99.90;;;;;;5052704;28;20033;-80
2022/09/28 11:56:34;;;;;;;1.02;0.80;;;22.60;99.90;;;;;;4974237;28;20065;-80
2022/09/28 11:59:26;;;;;;;1.90;0.50;;;22.70;99.90;;;;;;4974397;28;20492;-80
2022/09/28 12:01:56;;;;;;;0.70;0.70;;;23.90;99.90;;;;;;4974436;28;20428;-80
2022/09/28 12:04:41;;;;;;;1.40;0.50;;;24.10;99.90;;;;;;4974060;28;20526;-80
2022/09/28 12:07:18;;;;;;;1.08;0.63;;;24.60;99.90;;;;;;4974056;28;20495;-80
2022/09/28 12:10:18;;;;;;;0.50;0.50;;;24.30;99.90;;;;;;4973817;28;20070;-80
2022/09/28 12:13:01;;;;;;;1.38;0.50;;;23.60;99.90;;;;;;4974124;28;20126;-80
2022/09/28 12:15:36;;;;;;;1.73;0.50;;;26.30;99.90;;;;;;4974135;28;20045;-80
2022/09/28 12:18:26;;;;;;;1.25;0.60;;;25.70;99.90;;;;;;4973887;28;20046;-80
2022/09/28 12:21:14;;;;;;;0.65;0.50;;;23.70;99.90;;;;;;4973992;28;20031;-80
2022/09/28 12:23:40;;;;;;;0.77;0.52;;;24.20;99.90;;;;;;4975241;28;20681;-80
2022/09/28 12:26:31;;;;;;;1.58;0.65;;;23.80;99.90;;;;;;4993331;28;20038;-80
2022/09/28 12:29:01;;;;;;;1.38;0.60;;;25.50;99.90;;;;;;4992116;28;20118;-80
2022/09/28 12:31:39;;;;;;;0.90;0.70;;;30.20;99.90;;;;;;5013662;28;20033;-81
2022/09/28 12:34:05;;;;;;;1.33;0.57;;;29.50;99.90;;;;;;5054740;28;20432;-80
2022/09/28 12:36:42;;;;;;;1.50;0.60;;;27.20;99.90;;;;;;5054895;28;20029;-80
2022/09/28 12:39:26;;;;;;;1.92;0.60;;;25.80;99.90;;;;;;5054612;28;20115;-80
2022/09/28 12:42:20;;;;;;;2.38;0.50;;;25.50;99.90;;;;;;5054606;28;20017;-80
2022/09/28 12:44:58;;;;;;;0.80;0.60;;;23.80;99.90;;;;;;5054496;28;20036;-80
2022/09/28 12:47:45;;;;;;;0.70;0.45;;;23.00;99.90;;;;;;5054839;28;20432;-80
2022/09/28 12:50:19;;;;;;;0.57;0.50;;;22.30;99.90;;;;;;5054689;28;20040;-80
2022/09/28 12:52:58;;;;;;;0.40;0.40;;;22.40;99.90;;;;;;5054121;28;20052;-80
2022/09/28 12:55:45;;;;;;;0.57;0.50;;;21.70;99.90;;;;;;5054227;28;20087;-80
2022/09/28 12:58:36;;;;;;;0.85;0.50;;;21.50;99.90;;;;;;5054414;28;20025;-80
2022/09/28 13:01:17;;;;;;;1.58;0.50;;;20.60;99.90;;;;;;5064606;28;20020;-80
2022/09/28 13:04:13;;;;;;;0.80;0.70;;;19.80;99.90;;;;;;5074462;28;20049;-80
2022/09/28 13:06:48;;;;;;;0.47;0.38;;;18.40;1.00;;;;;;5073505;28;20541;-86
2022/09/28 13:09:25;;;;;;;1.38;0.50;;;18.20;1.00;;;;;;5075577;28;20437;-85
2022/09/28 13:11:57;;;;;;;1.42;0.55;;;18.50;99.90;;;;;;5074454;28;20028;-87
2022/09/28 13:14:40;;;;;;;0.80;0.50;;;17.90;99.90;;;;;;5074329;28;20059;-86
2022/09/28 13:17:43;;;;;;;1.63;0.60;;;18.00;99.90;;;;;;5073887;28;20028;-88
2022/09/28 13:20:36;;;;;;;3.28;0.60;;;18.20;99.90;;;;;;5073929;28;20032;-87
2022/09/28 13:23:19;;;;;;;0.40;0.40;;;16.90;99.90;;;;;;5072682;28;20033;-88
2022/09/28 13:25:52;;;;;;;1.45;0.70;;;16.80;99.90;;;;;;5074044;28;20028;-87